Time;durP1;ratioP1;P1;durP2;ratioP2;P2;SDS_P1;SDS_P2;PMS_P1;PMS_P2;Temp;Humidity;BMP_temperature;BMP_pressure;BME280_temperature;BME280_humidity;BME280_pressure;Samples;Min_cycle;Max_cycle;Signal;HPM_P1;HPM_P2
2023/04/18 00:00:32;;;;;;;;;;;21.80;54.40;;;;;;1562715;74;734;-64
2023/04/18 00:02:37;;;;;;;;;;;21.80;54.30;;;;;;1564606;74;693;-64
2023/04/18 00:04:37;;;;;;;;;;;21.80;54.10;;;;;;1564562;74;1715;-65
2023/04/18 00:06:39;;;;;;;;;;;21.80;54.00;;;;;;1562368;74;770;-65
2023/04/18 00:08:41;;;;;;;;;;;21.80;54.10;;;;;;1580243;74;707;-64
2023/04/18 00:10:43;;;;;;;;;;;21.80;54.10;;;;;;1566572;74;691;-64
2023/04/18 00:12:46;;;;;;;;;;;21.80;54.20;;;;;;1569266;74;1946;-64
2023/04/18 00:14:49;;;;;;;;;;;21.80;54.10;;;;;;1563096;74;1153;-65
2023/04/18 00:16:52;;;;;;;;;;;21.80;54.20;;;;;;1566515;74;1599;-65
2023/04/18 00:18:56;;;;;;;;;;;21.80;54.10;;;;;;1572171;74;717;-67
2023/04/18 00:20:57;;;;;;;;;;;21.80;54.30;;;;;;1582006;74;745;-65
2023/04/18 00:23:00;;;;;;;;;;;21.80;54.30;;;;;;1566629;74;852;-65
2023/04/18 00:25:02;;;;;;;;;;;21.80;54.50;;;;;;1568355;74;1149;-65
2023/04/18 00:27:04;;;;;;;;;;;21.70;54.60;;;;;;1570351;74;624;-64
2023/04/18 00:29:06;;;;;;;;;;;21.70;54.50;;;;;;1563440;74;734;-64
2023/04/18 00:31:08;;;;;;;;;;;21.70;54.50;;;;;;1568447;74;1941;-64
2023/04/18 00:33:10;;;;;;;;;;;21.80;54.30;;;;;;1557384;74;646;-65
2023/04/18 00:35:12;;;;;;;;;;;21.70;54.20;;;;;;1562789;74;1169;-65
2023/04/18 00:37:14;;;;;;;;;;;21.80;53.90;;;;;;1574185;74;733;-65
2023/04/18 00:39:15;;;;;;;;;;;21.90;53.90;;;;;;1582504;74;731;-64
2023/04/18 00:41:17;;;;;;;;;;;21.90;53.90;;;;;;1568669;74;749;-63
2023/04/18 00:43:21;;;;;;;;;;;21.90;53.80;;;;;;1572449;74;673;-63
2023/04/18 00:45:23;;;;;;;;;;;21.90;53.80;;;;;;1556825;74;1156;-63
2023/04/18 00:47:25;;;;;;;;;;;21.90;54.30;;;;;;1564322;74;764;-64
2023/04/18 00:49:27;;;;;;;;;;;21.80;54.10;;;;;;1570021;74;709;-63
2023/04/18 00:51:29;;;;;;;;;;;21.90;54.20;;;;;;1566912;74;1954;-64
2023/04/18 00:53:31;;;;;;;;;;;21.80;54.00;;;;;;1567932;74;1104;-63
2023/04/18 00:55:33;;;;;;;;;;;21.90;54.00;;;;;;1560771;74;1176;-62
2023/04/18 00:57:34;;;;;;;;;;;21.90;53.90;;;;;;1554447;74;777;-63
2023/04/18 00:59:36;;;;;;;;;;;21.90;53.90;;;;;;1561622;75;593;-63
2023/04/18 01:01:38;;;;;;;;;;;21.90;54.00;;;;;;1566207;74;758;-63
2023/04/18 01:03:40;;;;;;;;;;;21.80;53.90;;;;;;1551615;74;761;-63
2023/04/18 01:05:42;;;;;;;;;;;21.90;53.90;;;;;;1559130;74;1108;-64
2023/04/18 01:07:44;;;;;;;;;;;21.90;53.80;;;;;;1567479;74;741;-63
2023/04/18 01:09:46;;;;;;;;;;;21.80;53.80;;;;;;1572562;74;737;-64
2023/04/18 01:11:48;;;;;;;;;;;21.80;54.10;;;;;;1559571;74;1955;-63
2023/04/18 01:14:00;;;;;;;;;;;21.80;54.30;;;;;;1566385;74;1650;-63
2023/04/18 01:16:02;;;;;;;;;;;21.70;54.40;;;;;;1563734;74;708;-64
2023/04/18 01:18:04;;;;;;;;;;;21.70;54.40;;;;;;1564814;74;813;-63
2023/04/18 01:20:06;;;;;;;;;;;21.70;54.70;;;;;;1568544;74;743;-65
2023/04/18 01:22:08;;;;;;;;;;;21.60;54.70;;;;;;1573635;74;770;-64
2023/04/18 01:24:11;;;;;;;;;;;21.50;54.80;;;;;;1567905;74;1136;-63
2023/04/18 01:26:12;;;;;;;;;;;21.50;54.70;;;;;;1576189;74;759;-64
2023/04/18 01:28:14;;;;;;;;;;;21.50;55.00;;;;;;1568927;74;1664;-63
2023/04/18 01:30:16;;;;;;;;;;;21.50;55.00;;;;;;1570726;74;712;-64
2023/04/18 01:32:19;;;;;;;;;;;21.50;55.10;;;;;;1557708;74;1947;-65
2023/04/18 01:34:21;;;;;;;;;;;21.50;55.10;;;;;;1564120;74;1133;-65
2023/04/18 01:36:22;;;;;;;;;;;21.50;55.20;;;;;;1555959;74;803;-64
2023/04/18 01:38:24;;;;;;;;;;;21.40;55.10;;;;;;1571312;74;733;-65
2023/04/18 01:40:26;;;;;;;;;;;21.40;55.10;;;;;;1567726;74;777;-65
2023/04/18 01:42:28;;;;;;;;;;;21.40;55.10;;;;;;1564294;74;1575;-65
2023/04/18 01:44:30;;;;;;;;;;;21.40;55.20;;;;;;1576134;74;1145;-65
2023/04/18 01:46:32;;;;;;;;;;;21.40;55.40;;;;;;1569921;74;734;-69
2023/04/18 01:48:34;;;;;;;;;;;21.40;55.30;;;;;;1568941;74;718;-64
2023/04/18 01:50:36;;;;;;;;;;;21.30;55.30;;;;;;1564261;74;709;-65
2023/04/18 01:52:38;;;;;;;;;;;21.40;55.20;;;;;;1563958;74;1923;-64
2023/04/18 01:54:40;;;;;;;;;;;21.40;55.20;;;;;;1559500;75;1186;-66
2023/04/18 01:56:42;;;;;;;;;;;21.40;55.20;;;;;;1555828;75;663;-65
2023/04/18 01:58:43;;;;;;;;;;;21.40;55.10;;;;;;1559252;75;865;-65
2023/04/18 02:00:45;;;;;;;;;;;21.40;55.20;;;;;;1554335;75;767;-65
2023/04/18 02:02:49;;;;;;;;;;;21.50;55.40;;;;;;1557640;75;713;-64
2023/04/18 02:04:51;;;;;;;;;;;21.40;55.10;;;;;;1553769;75;1220;-64
2023/04/18 02:06:52;;;;;;;;;;;21.40;55.10;;;;;;1557078;75;741;-63
2023/04/18 02:08:54;;;;;;;;;;;21.40;55.10;;;;;;1560839;75;1592;-62
2023/04/18 02:10:56;;;;;;;;;;;21.50;55.20;;;;;;1554569;75;645;-64
2023/04/18 02:12:58;;;;;;;;;;;21.50;55.10;;;;;;1557996;75;1938;-63
2023/04/18 02:15:00;;;;;;;;;;;21.60;54.80;;;;;;1552267;75;1124;-66
2023/04/18 02:17:02;;;;;;;;;;;21.60;54.70;;;;;;1561143;75;735;-65
2023/04/18 02:19:05;;;;;;;;;;;21.60;54.50;;;;;;1555752;75;675;-65
2023/04/18 02:21:08;;;;;;;;;;;21.70;54.40;;;;;;1556426;75;747;-63
2023/04/18 02:23:10;;;;;;;;;;;21.70;54.40;;;;;;1553188;75;1530;-64
2023/04/18 02:25:12;;;;;;;;;;;21.70;54.20;;;;;;1557330;75;1098;-64
2023/04/18 02:27:14;;;;;;;;;;;21.70;54.20;;;;;;1558465;75;741;-61
2023/04/18 02:29:15;;;;;;;;;;;21.80;54.20;;;;;;1560868;75;721;-61
2023/04/18 02:31:17;;;;;;;;;;;21.70;54.00;;;;;;1554034;75;713;-61
2023/04/18 02:33:19;;;;;;;;;;;21.70;54.10;;;;;;1544780;75;1936;-61
2023/04/18 02:35:21;;;;;;;;;;;21.70;54.00;;;;;;1550280;75;1182;-62
2023/04/18 02:37:23;;;;;;;;;;;21.70;54.00;;;;;;1556318;75;1660;-63
2023/04/18 02:39:25;;;;;;;;;;;21.70;54.00;;;;;;1560432;75;856;-62
2023/04/18 02:41:27;;;;;;;;;;;21.70;54.00;;;;;;1565117;75;686;-62
2023/04/18 02:43:29;;;;;;;;;;;21.70;54.10;;;;;;1564060;75;738;-60
2023/04/18 02:45:31;;;;;;;;;;;21.70;54.10;;;;;;1557212;75;1102;-64
2023/04/18 02:47:33;;;;;;;;;;;21.70;54.10;;;;;;1563367;75;804;-62
2023/04/18 02:49:35;;;;;;;;;;;21.80;54.10;;;;;;1556899;75;752;-62
2023/04/18 02:51:37;;;;;;;;;;;21.70;54.30;;;;;;1552381;75;1245;-64
2023/04/18 02:53:39;;;;;;;;;;;21.80;54.10;;;;;;1551723;75;1936;-64
2023/04/18 02:55:41;;;;;;;;;;;21.70;54.20;;;;;;1557072;74;1171;-62
2023/04/18 02:57:42;;;;;;;;;;;21.70;54.20;;;;;;1565246;74;722;-64
2023/04/18 02:59:44;;;;;;;;;;;21.70;54.20;;;;;;1555875;75;722;-63
2023/04/18 03:01:46;;;;;;;;;;;21.70;54.10;;;;;;1559667;75;667;-61
2023/04/18 03:03:48;;;;;;;;;;;21.70;54.30;;;;;;1558088;74;705;-62
2023/04/18 03:05:50;;;;;;;;;;;21.70;54.10;;;;;;1556027;74;1588;-60
2023/04/18 03:07:52;;;;;;;;;;;21.70;54.20;;;;;;1561418;75;690;-62
2023/04/18 03:09:54;;;;;;;;;;;21.70;54.10;;;;;;1550851;75;697;-62
2023/04/18 03:11:56;;;;;;;;;;;21.70;54.70;;;;;;1558786;75;1936;-62
2023/04/18 03:13:58;;;;;;;;;;;21.60;54.70;;;;;;1574212;74;1143;-62
2023/04/18 03:16:01;;;;;;;;;;;21.60;55.10;;;;;;1565184;74;717;-62
2023/04/18 03:18:03;;;;;;;;;;;21.50;55.10;;;;;;1571232;74;756;-63
2023/04/18 03:20:05;;;;;;;;;;;21.50;55.20;;;;;;1550467;74;1553;-62
2023/04/18 03:22:08;;;;;;;;;;;21.50;55.30;;;;;;1556818;74;854;-63
2023/04/18 03:24:10;;;;;;;;;;;21.40;55.20;;;;;;1544671;75;1156;-63
2023/04/18 03:26:12;;;;;;;;;;;21.40;55.40;;;;;;1558196;75;732;-62
2023/04/18 03:28:14;;;;;;;;;;;21.40;55.50;;;;;;1552981;74;764;-62
2023/04/18 03:30:16;;;;;;;;;;;21.40;55.40;;;;;;1571809;74;733;-63
2023/04/18 03:32:18;;;;;;;;;;;21.40;55.50;;;;;;1569295;74;1926;-63
2023/04/18 03:34:20;;;;;;;;;;;21.40;55.50;;;;;;1560216;75;1549;-62
2023/04/18 03:36:24;;;;;;;;;;;21.40;55.60;;;;;;1562659;74;798;-62
2023/04/18 03:38:26;;;;;;;;;;;21.40;55.70;;;;;;1556964;74;698;-62
2023/04/18 03:40:28;;;;;;;;;;;21.40;55.60;;;;;;1572818;74;863;-61
2023/04/18 03:42:30;;;;;;;;;;;21.40;55.50;;;;;;1567745;74;697;-61
2023/04/18 03:44:31;;;;;;;;;;;21.40;55.50;;;;;;1576517;74;1181;-61
2023/04/18 03:46:33;;;;;;;;;;;21.40;55.60;;;;;;1550003;74;789;-62
2023/04/18 03:48:36;;;;;;;;;;;21.40;55.70;;;;;;1563132;74;1521;-63
2023/04/18 03:50:38;;;;;;;;;;;21.40;55.70;;;;;;1551796;74;781;-63
2023/04/18 03:52:39;;;;;;;;;;;21.30;55.70;;;;;;1563622;74;1927;-62
2023/04/18 03:54:41;;;;;;;;;;;21.40;55.50;;;;;;1561381;74;1153;-62
2023/04/18 03:56:43;;;;;;;;;;;21.40;55.50;;;;;;1565510;74;624;-62
2023/04/18 03:58:45;;;;;;;;;;;21.40;55.40;;;;;;1558573;75;699;-62
2023/04/18 04:00:47;;;;;;;;;;;21.40;55.30;;;;;;1567843;74;799;-63
2023/04/18 04:02:49;;;;;;;;;;;21.40;55.30;;;;;;1568855;74;1587;-63
2023/04/18 04:04:51;;;;;;;;;;;21.40;55.50;;;;;;1557480;74;1145;-61
2023/04/18 04:06:53;;;;;;;;;;;21.40;55.50;;;;;;1562575;74;666;-61
2023/04/18 04:08:55;;;;;;;;;;;21.40;55.50;;;;;;1559312;75;737;-62
2023/04/18 04:10:57;;;;;;;;;;;21.40;55.40;;;;;;1548208;74;784;-62
2023/04/18 04:12:59;;;;;;;;;;;21.40;55.10;;;;;;1556977;74;1938;-62
2023/04/18 04:15:01;;;;;;;;;;;21.50;55.30;;;;;;1566889;74;1136;-62
2023/04/18 04:17:02;;;;;;;;;;;21.50;55.50;;;;;;1553634;75;1675;-63
2023/04/18 04:19:04;;;;;;;;;;;21.40;55.20;;;;;;1561401;74;707;-63
2023/04/18 04:21:06;;;;;;;;;;;21.50;55.20;;;;;;1566968;74;660;-63
2023/04/18 04:23:08;;;;;;;;;;;21.50;55.30;;;;;;1564894;74;753;-64
2023/04/18 04:25:12;;;;;;;;;;;21.50;55.10;;;;;;1563632;74;1141;-64
2023/04/18 04:27:17;;;;;;;;;;;21.60;54.80;;;;;;1561427;74;1072;-63
2023/04/18 04:29:18;;;;;;;;;;;21.60;54.70;;;;;;1562918;75;1778;-63
2023/04/18 04:31:20;;;;;;;;;;;21.60;54.40;;;;;;1560582;74;1867;-63
2023/04/18 04:33:27;;;;;;;;;;;21.60;54.40;;;;;;1560173;75;1930;-63
2023/04/18 04:35:27;;;;;;;;;;;21.70;54.40;;;;;;1558982;75;1503;-63
2023/04/18 04:37:29;;;;;;;;;;;21.60;54.30;;;;;;1561218;74;695;-63
2023/04/18 04:39:31;;;;;;;;;;;21.70;54.20;;;;;;1562644;74;706;-63
2023/04/18 04:41:36;;;;;;;;;;;21.70;54.20;;;;;;1560832;74;750;-64
2023/04/18 04:43:39;;;;;;;;;;;21.60;54.20;;;;;;1558605;74;1794;-64
2023/04/18 04:45:40;;;;;;;;;;;21.70;54.20;;;;;;1560471;75;1667;-62
2023/04/18 04:47:42;;;;;;;;;;;21.70;54.30;;;;;;1559726;75;711;-62
2023/04/18 04:49:44;;;;;;;;;;;21.60;54.30;;;;;;1560175;74;798;-61
2023/04/18 04:51:45;;;;;;;;;;;21.60;54.30;;;;;;1563122;74;778;-60
2023/04/18 04:53:47;;;;;;;;;;;21.60;54.30;;;;;;1562824;74;1950;-60
2023/04/18 04:55:50;;;;;;;;;;;21.70;54.30;;;;;;1564402;74;1176;-60
2023/04/18 04:57:52;;;;;;;;;;;21.70;54.30;;;;;;1555652;75;1355;-63
2023/04/18 04:59:54;;;;;;;;;;;21.60;54.20;;;;;;1562926;74;694;-64
2023/04/18 05:01:56;;;;;;;;;;;21.70;54.30;;;;;;1560973;75;692;-64
2023/04/18 05:03:58;;;;;;;;;;;21.70;54.30;;;;;;1563927;74;1200;-63
2023/04/18 05:06:00;;;;;;;;;;;21.70;54.10;;;;;;1559916;74;782;-62
2023/04/18 05:08:02;;;;;;;;;;;21.80;54.10;;;;;;1556965;75;778;-63
2023/04/18 05:10:04;;;;;;;;;;;21.70;54.30;;;;;;1562876;74;707;-63
2023/04/18 05:12:06;;;;;;;;;;;21.70;54.40;;;;;;1561160;75;1602;-64
2023/04/18 05:14:08;;;;;;;;;;;21.70;54.30;;;;;;1563941;74;1934;-62
2023/04/18 05:16:10;;;;;;;;;;;21.70;54.20;;;;;;1560844;75;737;-62
2023/04/18 05:18:13;;;;;;;;;;;21.80;54.20;;;;;;1561453;74;886;-64
2023/04/18 05:20:15;;;;;;;;;;;21.80;54.20;;;;;;1568565;74;752;-63
2023/04/18 05:22:16;;;;;;;;;;;21.70;54.70;;;;;;1559823;74;736;-63
2023/04/18 05:24:18;;;;;;;;;;;21.70;54.90;;;;;;1560032;75;1232;-62
2023/04/18 05:26:20;;;;;;;;;;;21.70;54.80;;;;;;1559516;75;1548;-62
2023/04/18 05:28:23;;;;;;;;;;;21.70;54.70;;;;;;1565236;74;750;-62
2023/04/18 05:30:25;;;;;;;;;;;21.60;54.40;;;;;;1558675;74;627;-62
2023/04/18 05:32:26;;;;;;;;;;;21.70;54.30;;;;;;1569352;75;745;-63
2023/04/18 05:34:29;;;;;;;;;;;21.70;54.20;;;;;;1568038;74;1946;-63
2023/04/18 05:36:31;;;;;;;;;;;21.70;54.00;;;;;;1562980;74;748;-62
2023/04/18 05:38:33;;;;;;;;;;;21.70;53.90;;;;;;1564374;75;613;-62
2023/04/18 05:40:35;;;;;;;;;;;21.70;53.80;;;;;;1561272;75;1285;-61
2023/04/18 05:42:37;;;;;;;;;;;21.70;53.80;;;;;;1552402;75;815;-62
2023/04/18 05:44:39;;;;;;;;;;;21.70;53.80;;;;;;1560200;75;1155;-65
2023/04/18 05:46:41;;;;;;;;;;;21.70;54.40;;;;;;1562514;74;823;-63
2023/04/18 05:48:43;;;;;;;;;;;21.70;54.30;;;;;;1561009;74;747;-64
2023/04/18 05:50:45;;;;;;;;;;;21.70;54.50;;;;;;1566756;74;722;-64
2023/04/18 05:52:47;;;;;;;;;;;21.60;54.90;;;;;;1556838;74;718;-63
2023/04/18 05:54:49;;;;;;;;;;;21.60;54.70;;;;;;1560150;74;1974;-64
2023/04/18 05:56:51;;;;;;;;;;;21.60;54.40;;;;;;1558080;74;1129;-65
2023/04/18 05:58:53;;;;;;;;;;;21.60;54.40;;;;;;1555613;75;840;-64
2023/04/18 06:00:55;;;;;;;;;;;21.70;54.20;;;;;;1557592;75;743;-65
2023/04/18 06:02:57;;;;;;;;;;;21.60;54.10;;;;;;1553438;75;774;-65
2023/04/18 06:05:00;;;;;;;;;;;21.70;54.00;;;;;;1557552;75;1186;-65
2023/04/18 06:07:01;;;;;;;;;;;21.70;53.80;;;;;;1557090;75;678;-65
2023/04/18 06:09:03;;;;;;;;;;;21.60;53.60;;;;;;1559432;75;1584;-65
2023/04/18 06:11:05;;;;;;;;;;;21.70;53.70;;;;;;1556787;75;727;-64
2023/04/18 06:13:07;;;;;;;;;;;21.70;53.60;;;;;;1554438;75;1930;-64
2023/04/18 06:15:10;;;;;;;;;;;21.60;53.50;;;;;;1558299;75;1157;-65
2023/04/18 06:17:12;;;;;;;;;;;21.60;53.40;;;;;;1550515;75;682;-65
2023/04/18 06:19:14;;;;;;;;;;;21.70;53.40;;;;;;1558123;76;686;-65
2023/04/18 06:21:16;;;;;;;;;;;21.70;53.40;;;;;;1559266;75;705;-65
2023/04/18 06:23:17;;;;;;;;;;;21.70;53.30;;;;;;1559386;75;1379;-65
2023/04/18 06:25:20;;;;;;;;;;;21.70;53.30;;;;;;1552328;75;1160;-65
2023/04/18 06:27:22;;;;;;;;;;;21.60;53.20;;;;;;1560445;75;1002;-65
2023/04/18 06:29:26;;;;;;;;;;;21.70;53.20;;;;;;1557244;75;604;-64
2023/04/18 06:31:27;;;;;;;;;;;21.60;53.10;;;;;;1554092;75;1655;-64
2023/04/18 06:33:29;;;;;;;;;;;21.70;53.10;;;;;;1556019;75;1943;-64
2023/04/18 06:35:31;;;;;;;;;;;21.60;53.00;;;;;;1557194;75;1121;-64
2023/04/18 06:37:33;;;;;;;;;;;21.70;53.00;;;;;;1554616;76;1544;-63
2023/04/18 06:39:35;;;;;;;;;;;21.70;53.00;;;;;;1559247;75;809;-63
2023/04/18 06:41:37;;;;;;;;;;;21.60;52.90;;;;;;1556855;75;719;-64
2023/04/18 06:43:39;;;;;;;;;;;21.70;52.90;;;;;;1560033;75;709;-63
2023/04/18 06:45:41;;;;;;;;;;;21.70;52.90;;;;;;1557237;75;1165;-64
2023/04/18 06:47:43;;;;;;;;;;;21.70;52.80;;;;;;1556402;75;902;-64
2023/04/18 06:49:45;;;;;;;;;;;21.70;52.80;;;;;;1558536;75;757;-63
2023/04/18 06:51:46;;;;;;;;;;;21.70;52.80;;;;;;1556739;75;1598;-63
2023/04/18 06:53:51;;;;;;;;;;;21.70;52.80;;;;;;1557117;75;1936;-65
2023/04/18 06:55:52;;;;;;;;;;;21.60;52.60;;;;;;1557235;75;1747;-64
2023/04/18 06:57:54;;;;;;;;;;;21.60;52.60;;;;;;1561994;74;1053;-64
2023/04/18 06:59:56;;;;;;;;;;;21.60;52.60;;;;;;1560705;74;695;-63
2023/04/18 07:01:57;;;;;;;;;;;21.70;52.70;;;;;;1564188;74;689;-62
2023/04/18 07:04:00;;;;;;;;;;;21.60;52.60;;;;;;1562161;75;1185;-62
2023/04/18 07:06:02;;;;;;;;;;;21.60;52.60;;;;;;1561896;74;808;-63
2023/04/18 07:08:03;;;;;;;;;;;21.70;52.60;;;;;;1559880;75;693;-63
2023/04/18 07:10:07;;;;;;;;;;;21.60;52.50;;;;;;1561732;74;798;-63
2023/04/18 07:12:09;;;;;;;;;;;21.60;52.50;;;;;;1566979;75;781;-67
2023/04/18 07:14:11;;;;;;;;;;;21.60;52.50;;;;;;1562693;74;1943;-66
2023/04/18 07:16:13;;;;;;;;;;;21.60;52.40;;;;;;1560722;75;752;-66
2023/04/18 07:18:15;;;;;;;;;;;21.70;52.50;;;;;;1561766;74;1568;-66
2023/04/18 07:20:17;;;;;;;;;;;21.60;52.40;;;;;;1560879;74;812;-66
2023/04/18 07:22:19;;;;;;;;;;;21.60;52.30;;;;;;1558981;74;639;-67
2023/04/18 07:24:22;;;;;;;;;;;21.60;52.30;;;;;;1563223;74;1118;-66
2023/04/18 07:26:26;;;;;;;;;;;21.70;52.40;;;;;;1561363;74;772;-68
2023/04/18 07:28:28;;;;;;;;;;;21.60;52.30;;;;;;1560579;75;2052;-66
2023/04/18 07:30:30;;;;;;;;;;;21.60;52.30;;;;;;1557406;75;691;-65
2023/04/18 07:32:32;;;;;;;;;;;21.70;52.30;;;;;;1560117;74;1283;-66
2023/04/18 07:34:35;;;;;;;;;;;21.60;52.20;;;;;;1564411;74;1953;-66
2023/04/18 07:36:37;;;;;;;;;;;21.60;52.20;;;;;;1557836;74;755;-66
2023/04/18 07:38:39;;;;;;;;;;;21.70;52.30;;;;;;1556792;74;747;-66
2023/04/18 07:40:41;;;;;;;;;;;21.60;52.20;;;;;;1561513;75;728;-65
2023/04/18 07:42:43;;;;;;;;;;;21.60;52.20;;;;;;1566847;74;873;-66
2023/04/18 07:44:45;;;;;;;;;;;21.60;52.10;;;;;;1560925;74;1168;-67
2023/04/18 07:46:47;;;;;;;;;;;21.60;52.10;;;;;;1562965;74;1530;-66
2023/04/18 07:48:50;;;;;;;;;;;21.60;52.20;;;;;;1556445;74;780;-67
2023/04/18 07:50:52;;;;;;;;;;;21.60;52.20;;;;;;1556226;74;753;-65
2023/04/18 07:52:53;;;;;;;;;;;21.60;52.20;;;;;;1554808;74;746;-65
2023/04/18 07:54:55;;;;;;;;;;;21.70;52.20;;;;;;1561639;74;1930;-65
2023/04/18 07:56:58;;;;;;;;;;;21.60;52.10;;;;;;1564646;74;1101;-65
2023/04/18 07:59:00;;;;;;;;;;;21.60;52.20;;;;;;1570942;74;711;-66
2023/04/18 08:01:02;;;;;;;;;;;21.60;52.20;;;;;;1568608;74;1552;-66
2023/04/18 08:03:06;;;;;;;;;;;21.60;52.30;;;;;;1567266;74;773;-65
2023/04/18 08:05:08;;;;;;;;;;;21.60;52.30;;;;;;1571137;74;1187;-66
2023/04/18 08:07:10;;;;;;;;;;;21.60;52.20;;;;;;1567946;74;745;-66
2023/04/18 08:09:12;;;;;;;;;;;21.60;52.20;;;;;;1574088;74;691;-65
2023/04/18 08:11:14;;;;;;;;;;;21.60;52.20;;;;;;1569404;74;682;-66
2023/04/18 08:13:16;;;;;;;;;;;21.60;52.20;;;;;;1572639;74;748;-66
2023/04/18 08:15:18;;;;;;;;;;;21.60;52.20;;;;;;1578303;74;1907;-66
2023/04/18 08:17:21;;;;;;;;;;;21.70;52.20;;;;;;1571409;74;733;-65
2023/04/18 08:19:23;;;;;;;;;;;21.60;52.10;;;;;;1568692;74;767;-65
2023/04/18 08:21:25;;;;;;;;;;;21.60;52.20;;;;;;1569848;74;741;-65
2023/04/18 08:23:27;;;;;;;;;;;21.60;52.20;;;;;;1570848;74;802;-65
2023/04/18 08:25:30;;;;;;;;;;;21.60;52.30;;;;;;1568560;74;1141;-65
2023/04/18 08:27:32;;;;;;;;;;;21.60;52.30;;;;;;1567866;74;752;-65
2023/04/18 08:29:34;;;;;;;;;;;21.60;52.20;;;;;;1569403;74;1533;-67
2023/04/18 08:31:36;;;;;;;;;;;21.60;52.20;;;;;;1569990;74;736;-67
2023/04/18 08:33:38;;;;;;;;;;;21.60;52.20;;;;;;1569186;74;739;-66
2023/04/18 08:35:40;;;;;;;;;;;21.60;52.10;;;;;;1568380;74;1941;-66
2023/04/18 08:37:42;;;;;;;;;;;21.50;52.20;;;;;;1573834;74;739;-66
2023/04/18 08:39:44;;;;;;;;;;;21.60;52.20;;;;;;1552400;74;699;-66
2023/04/18 08:41:46;;;;;;;;;;;21.60;52.10;;;;;;1572943;74;760;-65
2023/04/18 08:43:48;;;;;;;;;;;21.60;52.10;;;;;;1565584;74;1303;-64
2023/04/18 08:45:51;;;;;;;;;;;21.50;52.10;;;;;;1568903;74;1245;-66
2023/04/18 08:47:54;;;;;;;;;;;21.60;52.10;;;;;;1578527;74;694;-66
2023/04/18 08:49:57;;;;;;;;;;;21.60;52.40;;;;;;1555628;74;719;-67
2023/04/18 08:51:59;;;;;;;;;;;21.60;52.60;;;;;;1568428;74;746;-68
2023/04/18 08:54:03;;;;;;;;;;;21.50;52.70;;;;;;1570979;74;1918;-67
2023/04/18 08:56:09;;;;;;;;;;;21.60;52.60;;;;;;1556322;74;666;-67
2023/04/18 08:58:11;;;;;;;;;;;21.50;52.60;;;;;;1547661;74;1654;-67
2023/04/18 09:00:12;;;;;;;;;;;21.60;52.60;;;;;;1566150;74;1632;-67
2023/04/18 09:02:14;;;;;;;;;;;21.60;52.50;;;;;;1576814;74;855;-67
2023/04/18 09:04:35;;;;;;;;;;;21.60;52.40;;;;;;1556046;74;1191;-67
2023/04/18 09:06:37;;;;;;;;;;;21.70;52.40;;;;;;1564109;75;766;-67
2023/04/18 09:08:42;;;;;;;;;;;21.60;52.30;;;;;;1562179;75;861;-67
2023/04/18 09:10:44;;;;;;;;;;;21.60;52.40;;;;;;1568339;75;1526;-67
2023/04/18 09:12:49;;;;;;;;;;;21.70;52.60;;;;;;1557935;74;790;-67
2023/04/18 09:14:56;;;;;;;;;;;21.70;52.70;;;;;;1534338;76;1946;-67
2023/04/18 09:16:56;;;;;;;;;;;21.70;52.70;;;;;;1551310;75;945;-67
2023/04/18 09:19:09;;;;;;;;;;;21.60;52.70;;;;;;1559983;74;765;-67
2023/04/18 09:21:12;;;;;;;;;;;21.70;52.90;;;;;;1566400;74;597;-67
2023/04/18 09:23:16;;;;;;;;;;;21.60;52.80;;;;;;1561786;74;2056;-67
2023/04/18 09:25:33;;;;;;;;;;;21.60;53.00;;;;;;1556711;75;1882;-67
2023/04/18 09:27:33;;;;;;;;;;;21.70;53.10;;;;;;1558709;74;1618;-67
2023/04/18 09:29:42;;;;;;;;;;;21.70;53.10;;;;;;1567877;74;680;-67
2023/04/18 09:32:00;;;;;;;;;;;21.70;53.00;;;;;;1564525;74;712;-67
2023/04/18 09:34:03;;;;;;;;;;;21.80;53.00;;;;;;1561573;75;1151;-67
2023/04/18 09:36:18;;;;;;;;;;;21.80;52.90;;;;;;1559882;75;1882;-67
2023/04/18 09:38:20;;;;;;;;;;;21.70;53.00;;;;;;1559551;74;674;-67
2023/04/18 09:40:22;;;;;;;;;;;21.70;53.10;;;;;;1557021;74;1386;-67
2023/04/18 09:42:24;;;;;;;;;;;21.70;53.10;;;;;;1560858;74;719;-67
2023/04/18 09:44:26;;;;;;;;;;;21.70;53.10;;;;;;1561564;75;1119;-67
2023/04/18 09:46:28;;;;;;;;;;;21.70;53.10;;;;;;1556344;75;710;-67
2023/04/18 09:48:30;;;;;;;;;;;21.70;53.00;;;;;;1559136;74;695;-68
2023/04/18 09:50:32;;;;;;;;;;;21.70;53.00;;;;;;1560237;74;767;-66
2023/04/18 09:52:37;;;;;;;;;;;21.70;53.00;;;;;;1564263;75;734;-67
2023/04/18 09:54:39;;;;;;;;;;;21.70;53.00;;;;;;1567510;75;1946;-64
2023/04/18 09:56:44;;;;;;;;;;;21.70;53.00;;;;;;1560499;75;767;-64
2023/04/18 09:58:46;;;;;;;;;;;21.70;53.00;;;;;;1516165;77;1066;-64
2023/04/18 10:00:50;;;;;;;;;;;21.70;53.00;;;;;;1524356;77;800;-64
2023/04/18 10:02:59;;;;;;;;;;;21.70;53.10;;;;;;1516688;76;1782;-64
2023/04/18 10:05:00;;;;;;;;;;;21.70;53.10;;;;;;1517756;76;1205;-65
2023/04/18 10:07:02;;;;;;;;;;;21.70;53.10;;;;;;1514433;76;1530;-64
2023/04/18 10:09:05;;;;;;;;;;;21.70;53.10;;;;;;1518433;77;785;-65
2023/04/18 10:11:07;;;;;;;;;;;21.70;53.10;;;;;;1505320;78;709;-65
2023/04/18 10:13:10;;;;;;;;;;;21.70;53.20;;;;;;1558187;74;670;-65
2023/04/18 10:15:11;;;;;;;;;;;21.70;53.10;;;;;;1553950;74;1939;-64
2023/04/18 10:17:14;;;;;;;;;;;21.70;53.00;;;;;;1560909;74;757;-64
2023/04/18 10:19:25;;;;;;;;;;;21.70;53.10;;;;;;1572431;74;766;-64
2023/04/18 10:21:28;;;;;;;;;;;21.80;53.10;;;;;;1548442;74;1378;-65
2023/04/18 10:23:36;;;;;;;;;;;21.70;53.10;;;;;;1564231;75;834;-65
2023/04/18 10:25:40;;;;;;;;;;;21.70;53.10;;;;;;1560397;74;1155;-65
2023/04/18 10:27:50;;;;;;;;;;;21.70;53.10;;;;;;1564766;74;783;-65
2023/04/18 10:29:52;;;;;;;;;;;21.80;53.00;;;;;;1559275;74;675;-65
2023/04/18 10:31:54;;;;;;;;;;;21.70;53.10;;;;;;1521826;77;702;-65
2023/04/18 10:33:59;;;;;;;;;;;21.80;53.00;;;;;;1484336;78;1152;-65
2023/04/18 10:36:11;;;;;;;;;;;21.70;53.00;;;;;;1490906;78;1943;-65
2023/04/18 10:38:16;;;;;;;;;;;21.70;53.00;;;;;;1490759;78;871;-65
2023/04/18 10:40:20;;;;;;;;;;;21.70;52.90;;;;;;1498367;77;769;-64
2023/04/18 10:42:32;;;;;;;;;;;21.80;52.80;;;;;;1562981;74;1779;-65
2023/04/18 10:44:34;;;;;;;;;;;21.70;52.90;;;;;;1530758;76;1196;-64
2023/04/18 10:46:37;;;;;;;;;;;21.80;52.80;;;;;;1560938;75;676;-65
2023/04/18 10:48:39;;;;;;;;;;;22.10;53.00;;;;;;1572894;74;768;-65
2023/04/18 10:50:59;;;;;;;;;;;21.70;52.70;;;;;;1566531;74;1308;-65
2023/04/18 10:53:00;;;;;;;;;;;21.80;52.70;;;;;;1560294;74;764;-65
2023/04/18 10:55:18;;;;;;;;;;;21.70;52.70;;;;;;1563687;74;1937;-65
2023/04/18 10:57:20;;;;;;;;;;;21.80;52.60;;;;;;1554888;75;791;-65
2023/04/18 10:59:22;;;;;;;;;;;21.70;52.60;;;;;;1552804;74;1067;-65
2023/04/18 11:01:26;;;;;;;;;;;21.80;52.60;;;;;;1557545;75;860;-65
2023/04/18 11:03:34;;;;;;;;;;;21.70;52.60;;;;;;1556429;75;1336;-64
2023/04/18 11:05:36;;;;;;;;;;;21.80;52.50;;;;;;1555957;75;1146;-65
2023/04/18 11:07:39;;;;;;;;;;;21.70;52.50;;;;;;1560676;75;795;-63
2023/04/18 11:09:41;;;;;;;;;;;21.70;52.40;;;;;;1557625;75;712;-65
2023/04/18 11:11:43;;;;;;;;;;;21.80;52.40;;;;;;1557885;75;691;-64
2023/04/18 11:13:55;;;;;;;;;;;21.70;52.30;;;;;;1556429;75;697;-65
2023/04/18 11:15:57;;;;;;;;;;;21.80;52.30;;;;;;1551001;75;1913;-65
2023/04/18 11:18:00;;;;;;;;;;;21.80;52.30;;;;;;1553554;75;1446;-65
2023/04/18 11:20:13;;;;;;;;;;;21.70;52.20;;;;;;1557942;75;1844;-65
2023/04/18 11:22:15;;;;;;;;;;;21.80;52.30;;;;;;1558652;75;772;-65
2023/04/18 11:24:21;;;;;;;;;;;21.70;52.30;;;;;;1558059;75;1105;-65
2023/04/18 11:26:27;;;;;;;;;;;21.70;52.20;;;;;;1558216;75;739;-65
2023/04/18 11:28:29;;;;;;;;;;;21.70;52.20;;;;;;1559066;75;693;-65
2023/04/18 11:30:37;;;;;;;;;;;21.70;52.20;;;;;;1559030;75;671;-65
2023/04/18 11:32:39;;;;;;;;;;;21.70;52.10;;;;;;1558625;75;1547;-65
2023/04/18 11:34:41;;;;;;;;;;;21.70;52.10;;;;;;1558642;75;1137;-64
2023/04/18 11:36:43;;;;;;;;;;;21.70;52.10;;;;;;1558451;75;1944;-64
2023/04/18 11:38:45;;;;;;;;;;;21.70;52.00;;;;;;1559110;75;810;-63
2023/04/18 11:40:48;;;;;;;;;;;21.70;52.00;;;;;;1561616;75;801;-65
2023/04/18 11:42:50;;;;;;;;;;;21.70;52.00;;;;;;1545290;75;1572;-65
2023/04/18 11:44:52;;;;;;;;;;;21.70;52.00;;;;;;1526450;77;1462;-65
2023/04/18 11:46:54;;;;;;;;;;;21.80;52.00;;;;;;1561435;75;1565;-64
2023/04/18 11:48:56;;;;;;;;;;;21.80;52.00;;;;;;1557849;75;810;-66
2023/04/18 11:50:58;;;;;;;;;;;21.70;51.90;;;;;;1558742;75;801;-65
2023/04/18 11:53:00;;;;;;;;;;;21.70;51.90;;;;;;1559821;75;772;-65
2023/04/18 11:55:16;;;;;;;;;;;21.70;51.90;;;;;;1560492;75;1944;-64
2023/04/18 11:57:25;;;;;;;;;;;21.70;51.80;;;;;;1548326;75;1320;-64
2023/04/18 11:59:27;;;;;;;;;;;21.70;51.80;;;;;;1549144;75;1503;-64
2023/04/18 12:01:28;;;;;;;;;;;21.70;51.80;;;;;;1556147;75;782;-64
2023/04/18 12:03:30;;;;;;;;;;;21.70;51.80;;;;;;1558465;75;728;-65
2023/04/18 12:05:33;;;;;;;;;;;21.70;51.80;;;;;;1558358;75;1161;-64
2023/04/18 12:07:39;;;;;;;;;;;21.70;51.80;;;;;;1558359;75;755;-64
2023/04/18 12:09:40;;;;;;;;;;;21.70;51.80;;;;;;1563860;75;712;-65
2023/04/18 12:11:42;;;;;;;;;;;21.80;51.70;;;;;;1558918;75;732;-65